Terminal Aerodrome Forecast
Issued by NWS Spokane, WA

Home | Current Version | Previous Version | Text Only | Print | Product List | Glossary On
Versions: 1 2 3 4 5 6 7 8 9 10 11 12 13 14 15 16 17 18 19 20 21 22 23 24 25 26 27 28 29 30 31 32 33 34 35 36 37 38 39 40 41 42 43 44 45 46 47 48 49 50
000
FTUS46 KOTX 191738
TAFGEG
TAF
KGEG 191738Z 1918/2018 15007KT 1SM BR BKN003 OVC015
     FM191900 18009KT 5SM BR SCT005 BKN035
     FM192000 20010KT P6SM -SHRA SCT035 BKN050
     FM200000 17008KT P6SM SCT040 BKN070
     FM200700 15007KT 3SM -SHRA BR BKN012 OVC020
     FM201200 13006KT 2SM BR BKN007 OVC012
     FM201600 08010KT 5SM -RA BR BKN005 OVC010=

USA.gov is the U.S. government's official web portal to all federal, state and local government web resources and services.